sensor_id;sensor_type;location;lat;lon;timestamp;pressure;altitude;pressure_sealevel;temperature;humidity
81224;BME280;70698;44.402;18.522;2023-11-21T00:00:00;97056.63;;;6.72;89.68
81224;BME280;70698;44.402;18.522;2023-11-21T00:02:26;97069.50;;;6.74;89.21
81224;BME280;70698;44.402;18.522;2023-11-21T00:04:52;97062.50;;;6.74;90.00
81224;BME280;70698;44.402;18.522;2023-11-21T00:07:18;97062.50;;;6.82;89.25
81224;BME280;70698;44.402;18.522;2023-11-21T00:09:44;97062.97;;;6.70;89.96
81224;BME280;70698;44.402;18.522;2023-11-21T00:12:09;97057.13;;;6.76;90.77
81224;BME280;70698;44.402;18.522;2023-11-21T00:14:39;97047.31;;;6.78;89.78
81224;BME280;70698;44.402;18.522;2023-11-21T00:17:05;97055.66;;;6.98;89.96
81224;BME280;70698;44.402;18.522;2023-11-21T00:19:32;97050.91;;;6.69;89.73
81224;BME280;70698;44.402;18.522;2023-11-21T00:21:59;97062.53;;;6.99;90.71
81224;BME280;70698;44.402;18.522;2023-11-21T00:24:25;97068.13;;;7.12;89.91
81224;BME280;70698;44.402;18.522;2023-11-21T00:26:51;97061.88;;;7.13;89.64
81224;BME280;70698;44.402;18.522;2023-11-21T00:29:18;97050.66;;;7.12;88.61
81224;BME280;70698;44.402;18.522;2023-11-21T00:31:44;97050.28;;;7.23;89.18
81224;BME280;70698;44.402;18.522;2023-11-21T00:34:12;97042.63;;;7.14;88.74
81224;BME280;70698;44.402;18.522;2023-11-21T00:36:37;97044.41;;;7.13;89.05
81224;BME280;70698;44.402;18.522;2023-11-21T00:39:03;97044.75;;;7.18;89.29
81224;BME280;70698;44.402;18.522;2023-11-21T00:41:31;97032.66;;;7.33;89.49
81224;BME280;70698;44.402;18.522;2023-11-21T00:43:57;97037.19;;;7.48;89.02
81224;BME280;70698;44.402;18.522;2023-11-21T00:46:24;97033.78;;;7.39;87.47
81224;BME280;70698;44.402;18.522;2023-11-21T00:48:52;97029.03;;;7.59;88.57
81224;BME280;70698;44.402;18.522;2023-11-21T00:51:19;97033.47;;;7.34;87.72
81224;BME280;70698;44.402;18.522;2023-11-21T00:53:45;97024.81;;;7.25;87.58
81224;BME280;70698;44.402;18.522;2023-11-21T00:56:12;97021.91;;;7.12;88.04
81224;BME280;70698;44.402;18.522;2023-11-21T00:58:39;97028.69;;;6.73;89.18
81224;BME280;70698;44.402;18.522;2023-11-21T01:01:08;97029.03;;;6.78;90.00
81224;BME280;70698;44.402;18.522;2023-11-21T01:03:33;97022.53;;;6.82;90.06
81224;BME280;70698;44.402;18.522;2023-11-21T01:05:59;97032.50;;;6.95;89.95
81224;BME280;70698;44.402;18.522;2023-11-21T01:08:25;97029.72;;;6.96;89.71
81224;BME280;70698;44.402;18.522;2023-11-21T01:10:51;97021.56;;;7.07;88.79
81224;BME280;70698;44.402;18.522;2023-11-21T01:13:16;97014.34;;;6.93;89.33
81224;BME280;70698;44.402;18.522;2023-11-21T01:15:42;97015.50;;;6.82;90.46
81224;BME280;70698;44.402;18.522;2023-11-21T01:18:08;97017.13;;;6.67;90.93
81224;BME280;70698;44.402;18.522;2023-11-21T01:20:36;97009.16;;;6.77;91.01
81224;BME280;70698;44.402;18.522;2023-11-21T01:23:02;97010.13;;;6.84;90.24
81224;BME280;70698;44.402;18.522;2023-11-21T01:25:27;96989.06;;;6.77;89.87
81224;BME280;70698;44.402;18.522;2023-11-21T01:27:53;96994.44;;;6.76;89.82
81224;BME280;70698;44.402;18.522;2023-11-21T01:30:19;97000.31;;;6.70;89.64
81224;BME280;70698;44.402;18.522;2023-11-21T01:32:44;96994.09;;;6.63;90.69
81224;BME280;70698;44.402;18.522;2023-11-21T01:35:10;96979.88;;;6.49;90.12
81224;BME280;70698;44.402;18.522;2023-11-21T01:37:37;96982.50;;;6.49;91.00
81224;BME280;70698;44.402;18.522;2023-11-21T01:40:03;96984.47;;;6.63;90.88
81224;BME280;70698;44.402;18.522;2023-11-21T01:42:33;96976.47;;;6.65;90.23
81224;BME280;70698;44.402;18.522;2023-11-21T01:45:00;96973.88;;;6.65;89.72
81224;BME280;70698;44.402;18.522;2023-11-21T01:47:31;96976.66;;;6.71;90.17
81224;BME280;70698;44.402;18.522;2023-11-21T01:49:57;96976.47;;;6.73;90.58
81224;BME280;70698;44.402;18.522;2023-11-21T01:52:24;96968.81;;;6.71;90.81
81224;BME280;70698;44.402;18.522;2023-11-21T01:54:50;96963.28;;;6.90;90.54
81224;BME280;70698;44.402;18.522;2023-11-21T01:57:16;96968.16;;;6.93;90.06
81224;BME280;70698;44.402;18.522;2023-11-21T01:59:42;96974.19;;;6.94;89.81
81224;BME280;70698;44.402;18.522;2023-11-21T02:02:08;96969.13;;;7.01;89.70
81224;BME280;70698;44.402;18.522;2023-11-21T02:04:37;96962.75;;;7.03;89.50
81224;BME280;70698;44.402;18.522;2023-11-21T02:07:03;96943.84;;;6.77;89.81
81224;BME280;70698;44.402;18.522;2023-11-21T02:09:32;96944.81;;;6.84;90.16
81224;BME280;70698;44.402;18.522;2023-11-21T02:11:59;96946.28;;;6.78;90.17
81224;BME280;70698;44.402;18.522;2023-11-21T02:14:26;96933.72;;;6.90;90.33
81224;BME280;70698;44.402;18.522;2023-11-21T02:16:54;96932.53;;;7.09;89.99
81224;BME280;70698;44.402;18.522;2023-11-21T02:19:22;96927.34;;;6.92;89.01
81224;BME280;70698;44.402;18.522;2023-11-21T02:21:53;96926.22;;;6.79;90.96
81224;BME280;70698;44.402;18.522;2023-11-21T02:24:23;96917.88;;;6.83;91.17
81224;BME280;70698;44.402;18.522;2023-11-21T02:26:50;96933.88;;;6.97;90.84
81224;BME280;70698;44.402;18.522;2023-11-21T02:29:19;96924.22;;;7.05;91.37
81224;BME280;70698;44.402;18.522;2023-11-21T02:31:52;96912.66;;;6.91;89.75
81224;BME280;70698;44.402;18.522;2023-11-21T02:34:21;96930.59;;;7.03;91.03
81224;BME280;70698;44.402;18.522;2023-11-21T02:36:47;96918.84;;;6.90;90.78
81224;BME280;70698;44.402;18.522;2023-11-21T02:39:17;96909.03;;;6.92;90.50
81224;BME280;70698;44.402;18.522;2023-11-21T02:41:43;96906.25;;;7.10;90.44
81224;BME280;70698;44.402;18.522;2023-11-21T02:44:10;96901.69;;;7.04;89.66
81224;BME280;70698;44.402;18.522;2023-11-21T02:46:36;96903.69;;;6.86;90.90
81224;BME280;70698;44.402;18.522;2023-11-21T02:49:03;96903.38;;;6.81;90.50
81224;BME280;70698;44.402;18.522;2023-11-21T02:51:30;96891.28;;;6.64;91.32
81224;BME280;70698;44.402;18.522;2023-11-21T02:53:56;96897.66;;;6.69;91.81
81224;BME280;70698;44.402;18.522;2023-11-21T02:56:27;96906.13;;;6.79;91.81
81224;BME280;70698;44.402;18.522;2023-11-21T02:58:55;96901.53;;;7.06;91.44
81224;BME280;70698;44.402;18.522;2023-11-21T03:01:21;96893.53;;;7.07;90.81
81224;BME280;70698;44.402;18.522;2023-11-21T03:03:47;96905.91;;;7.13;90.78
81224;BME280;70698;44.402;18.522;2023-11-21T03:06:15;96908.53;;;7.21;90.78
81224;BME280;70698;44.402;18.522;2023-11-21T03:08:41;96903.16;;;7.15;90.40
81224;BME280;70698;44.402;18.522;2023-11-21T03:11:07;96895.16;;;7.00;90.92
81224;BME280;70698;44.402;18.522;2023-11-21T03:13:33;96896.81;;;6.93;90.66
81224;BME280;70698;44.402;18.522;2023-11-21T03:15:59;96878.72;;;6.75;91.62
81224;BME280;70698;44.402;18.522;2023-11-21T03:18:25;96891.44;;;6.86;92.53
81224;BME280;70698;44.402;18.522;2023-11-21T03:20:52;96889.78;;;7.02;92.15
81224;BME280;70698;44.402;18.522;2023-11-21T03:23:18;96893.84;;;7.12;91.14
81224;BME280;70698;44.402;18.522;2023-11-21T03:25:44;96885.00;;;7.13;90.58
81224;BME280;70698;44.402;18.522;2023-11-21T03:28:09;96874.28;;;6.92;90.93
81224;BME280;70698;44.402;18.522;2023-11-21T03:30:35;96885.53;;;6.92;92.11
81224;BME280;70698;44.402;18.522;2023-11-21T03:33:01;96873.78;;;7.05;91.86
81224;BME280;70698;44.402;18.522;2023-11-21T03:35:26;96885.84;;;7.06;91.06
81224;BME280;70698;44.402;18.522;2023-11-21T03:37:53;96889.44;;;7.05;90.15
81224;BME280;70698;44.402;18.522;2023-11-21T03:40:19;96881.81;;;6.79;91.06
81224;BME280;70698;44.402;18.522;2023-11-21T03:42:46;96873.84;;;6.72;92.51
81224;BME280;70698;44.402;18.522;2023-11-21T03:45:12;96870.38;;;6.64;93.04
81224;BME280;70698;44.402;18.522;2023-11-21T03:47:41;96863.88;;;6.76;93.71
81224;BME280;70698;44.402;18.522;2023-11-21T03:50:07;96859.41;;;6.92;93.17
81224;BME280;70698;44.402;18.522;2023-11-21T03:52:34;96851.22;;;7.04;92.11
81224;BME280;70698;44.402;18.522;2023-11-21T03:55:01;96857.16;;;6.89;91.18
81224;BME280;70698;44.402;18.522;2023-11-21T03:57:28;96852.06;;;6.96;92.42
81224;BME280;70698;44.402;18.522;2023-11-21T03:59:53;96857.28;;;7.04;92.02
81224;BME280;70698;44.402;18.522;2023-11-21T04:02:19;96854.19;;;6.92;92.12
81224;BME280;70698;44.402;18.522;2023-11-21T04:04:45;96852.56;;;7.00;92.19
81224;BME280;70698;44.402;18.522;2023-11-21T04:07:11;96857.13;;;6.98;92.43
81224;BME280;70698;44.402;18.522;2023-11-21T04:09:39;96854.16;;;7.09;91.52
81224;BME280;70698;44.402;18.522;2023-11-21T04:12:05;96848.47;;;7.05;91.58
81224;BME280;70698;44.402;18.522;2023-11-21T04:14:31;96850.78;;;6.84;91.99
81224;BME280;70698;44.402;18.522;2023-11-21T04:16:57;96844.44;;;6.86;92.90
81224;BME280;70698;44.402;18.522;2023-11-21T04:19:22;96838.69;;;6.91;93.08
81224;BME280;70698;44.402;18.522;2023-11-21T04:21:48;96842.44;;;6.97;91.96
81224;BME280;70698;44.402;18.522;2023-11-21T04:24:14;96833.97;;;6.78;91.45
81224;BME280;70698;44.402;18.522;2023-11-21T04:26:40;96842.75;;;6.93;91.33
81224;BME280;70698;44.402;18.522;2023-11-21T04:29:05;96839.97;;;7.03;91.62
81224;BME280;70698;44.402;18.522;2023-11-21T04:31:31;96838.50;;;7.01;91.65
81224;BME280;70698;44.402;18.522;2023-11-21T04:33:57;96836.63;;;6.62;92.57
81224;BME280;70698;44.402;18.522;2023-11-21T04:36:23;96819.84;;;6.57;93.32
81224;BME280;70698;44.402;18.522;2023-11-21T04:38:48;96835.13;;;6.76;93.18
81224;BME280;70698;44.402;18.522;2023-11-21T04:41:14;96820.91;;;6.78;92.82
81224;BME280;70698;44.402;18.522;2023-11-21T04:43:39;96830.69;;;6.92;92.36
81224;BME280;70698;44.402;18.522;2023-11-21T04:46:05;96830.56;;;6.70;92.04
81224;BME280;70698;44.402;18.522;2023-11-21T04:48:32;96831.22;;;6.72;92.91
81224;BME280;70698;44.402;18.522;2023-11-21T04:50:58;96823.03;;;6.83;93.01
81224;BME280;70698;44.402;18.522;2023-11-21T04:53:24;96829.06;;;6.83;92.42
81224;BME280;70698;44.402;18.522;2023-11-21T04:55:49;96820.53;;;6.98;92.67
81224;BME280;70698;44.402;18.522;2023-11-21T04:58:15;96826.53;;;7.14;92.99
81224;BME280;70698;44.402;18.522;2023-11-21T05:00:40;96820.00;;;7.18;91.85
81224;BME280;70698;44.402;18.522;2023-11-21T05:03:06;96821.34;;;6.98;91.92
81224;BME280;70698;44.402;18.522;2023-11-21T05:05:32;96822.03;;;7.00;92.33
81224;BME280;70698;44.402;18.522;2023-11-21T05:07:59;96806.41;;;7.23;92.95
81224;BME280;70698;44.402;18.522;2023-11-21T05:10:25;96821.41;;;7.37;92.18
81224;BME280;70698;44.402;18.522;2023-11-21T05:12:50;96823.81;;;7.39;91.14
81224;BME280;70698;44.402;18.522;2023-11-21T05:15:16;96816.47;;;7.42;91.11
81224;BME280;70698;44.402;18.522;2023-11-21T05:17:45;96821.59;;;7.27;91.60
81224;BME280;70698;44.402;18.522;2023-11-21T05:20:12;96831.38;;;7.33;91.73
81224;BME280;70698;44.402;18.522;2023-11-21T05:22:39;96828.59;;;7.35;91.72
81224;BME280;70698;44.402;18.522;2023-11-21T05:25:05;96828.25;;;7.38;91.67
81224;BME280;70698;44.402;18.522;2023-11-21T05:27:32;96829.56;;;7.42;91.19
81224;BME280;70698;44.402;18.522;2023-11-21T05:30:00;96833.56;;;7.53;91.50
81224;BME280;70698;44.402;18.522;2023-11-21T05:32:26;96827.34;;;7.54;90.73
81224;BME280;70698;44.402;18.522;2023-11-21T05:34:52;96835.56;;;7.51;90.78
81224;BME280;70698;44.402;18.522;2023-11-21T05:37:18;96822.25;;;7.29;91.08
81224;BME280;70698;44.402;18.522;2023-11-21T05:39:44;96829.19;;;7.06;92.01
81224;BME280;70698;44.402;18.522;2023-11-21T05:42:09;96829.16;;;7.14;92.72
81224;BME280;70698;44.402;18.522;2023-11-21T05:44:37;96832.28;;;7.10;91.65
81224;BME280;70698;44.402;18.522;2023-11-21T05:47:03;96849.78;;;7.01;91.96
81224;BME280;70698;44.402;18.522;2023-11-21T05:49:29;96836.06;;;7.07;92.37
81224;BME280;70698;44.402;18.522;2023-11-21T05:51:56;96855.03;;;6.85;92.30
81224;BME280;70698;44.402;18.522;2023-11-21T05:54:21;96832.34;;;6.85;93.05
81224;BME280;70698;44.402;18.522;2023-11-21T05:56:49;96837.72;;;6.92;92.93
81224;BME280;70698;44.402;18.522;2023-11-21T05:59:15;96827.59;;;6.97;92.86
81224;BME280;70698;44.402;18.522;2023-11-21T06:01:40;96826.88;;;7.11;92.85
81224;BME280;70698;44.402;18.522;2023-11-21T06:04:06;96832.03;;;7.27;92.47
81224;BME280;70698;44.402;18.522;2023-11-21T06:06:33;96827.63;;;7.28;91.85
81224;BME280;70698;44.402;18.522;2023-11-21T06:08:59;96839.81;;;7.44;91.54
81224;BME280;70698;44.402;18.522;2023-11-21T06:11:25;96837.97;;;7.52;90.01
81224;BME280;70698;44.402;18.522;2023-11-21T06:13:51;96848.63;;;7.51;89.77
81224;BME280;70698;44.402;18.522;2023-11-21T06:16:19;96848.41;;;7.60;90.02
81224;BME280;70698;44.402;18.522;2023-11-21T06:18:47;96849.25;;;7.22;90.75
81224;BME280;70698;44.402;18.522;2023-11-21T06:21:13;96849.88;;;7.24;92.12
81224;BME280;70698;44.402;18.522;2023-11-21T06:23:39;96852.47;;;7.24;92.42
81224;BME280;70698;44.402;18.522;2023-11-21T06:26:05;96852.31;;;7.25;92.55
81224;BME280;70698;44.402;18.522;2023-11-21T06:28:32;96851.25;;;7.43;92.28
81224;BME280;70698;44.402;18.522;2023-11-21T06:30:57;96835.25;;;7.38;91.89
81224;BME280;70698;44.402;18.522;2023-11-21T06:33:24;96853.72;;;7.44;91.88
81224;BME280;70698;44.402;18.522;2023-11-21T06:35:52;96856.44;;;7.59;91.67
81224;BME280;70698;44.402;18.522;2023-11-21T06:38:18;96849.69;;;7.64;90.74
81224;BME280;70698;44.402;18.522;2023-11-21T06:40:45;96845.81;;;7.52;91.93
81224;BME280;70698;44.402;18.522;2023-11-21T06:43:11;96847.72;;;7.35;92.35
81224;BME280;70698;44.402;18.522;2023-11-21T06:45:36;96839.34;;;7.40;93.55
81224;BME280;70698;44.402;18.522;2023-11-21T06:48:02;96849.66;;;7.42;93.37
81224;BME280;70698;44.402;18.522;2023-11-21T06:50:28;96841.75;;;7.50;93.20
81224;BME280;70698;44.402;18.522;2023-11-21T06:52:53;96845.13;;;7.66;93.14
81224;BME280;70698;44.402;18.522;2023-11-21T06:55:19;96846.88;;;7.74;92.70
81224;BME280;70698;44.402;18.522;2023-11-21T06:57:45;96846.06;;;7.73;92.64
81224;BME280;70698;44.402;18.522;2023-11-21T07:00:13;96832.66;;;7.76;92.86
81224;BME280;70698;44.402;18.522;2023-11-21T07:02:40;96848.56;;;7.67;93.20
81224;BME280;70698;44.402;18.522;2023-11-21T07:05:06;96846.44;;;7.62;94.77
81224;BME280;70698;44.402;18.522;2023-11-21T07:07:32;96842.97;;;7.70;95.72
81224;BME280;70698;44.402;18.522;2023-11-21T07:10:01;96848.44;;;7.83;95.92
81224;BME280;70698;44.402;18.522;2023-11-21T07:12:30;96846.13;;;7.88;95.48
81224;BME280;70698;44.402;18.522;2023-11-21T07:14:57;96841.88;;;7.87;95.42
81224;BME280;70698;44.402;18.522;2023-11-21T07:17:23;96837.47;;;7.88;95.54
81224;BME280;70698;44.402;18.522;2023-11-21T07:19:49;96828.59;;;7.97;95.90
81224;BME280;70698;44.402;18.522;2023-11-21T07:22:15;96833.03;;;7.96;95.65
81224;BME280;70698;44.402;18.522;2023-11-21T07:24:49;96829.06;;;8.00;95.02
81224;BME280;70698;44.402;18.522;2023-11-21T07:27:18;96820.56;;;7.98;94.75
81224;BME280;70698;44.402;18.522;2023-11-21T07:29:44;96822.56;;;7.96;95.34
81224;BME280;70698;44.402;18.522;2023-11-21T07:32:10;96820.78;;;7.89;95.61
81224;BME280;70698;44.402;18.522;2023-11-21T07:34:36;96807.56;;;7.82;96.02
81224;BME280;70698;44.402;18.522;2023-11-21T07:37:02;96803.50;;;7.79;96.41
81224;BME280;70698;44.402;18.522;2023-11-21T07:39:29;96793.56;;;7.75;96.79
81224;BME280;70698;44.402;18.522;2023-11-21T07:41:55;96810.91;;;7.99;97.08
81224;BME280;70698;44.402;18.522;2023-11-21T07:44:21;96801.41;;;7.98;96.54
81224;BME280;70698;44.402;18.522;2023-11-21T07:46:48;96805.63;;;8.07;97.10
81224;BME280;70698;44.402;18.522;2023-11-21T07:49:15;96812.19;;;8.03;96.95
81224;BME280;70698;44.402;18.522;2023-11-21T07:51:43;96807.53;;;7.90;96.34
81224;BME280;70698;44.402;18.522;2023-11-21T07:54:09;96807.19;;;7.93;96.71
81224;BME280;70698;44.402;18.522;2023-11-21T07:56:35;96808.00;;;7.94;96.63
81224;BME280;70698;44.402;18.522;2023-11-21T07:59:01;96806.34;;;7.93;97.04
81224;BME280;70698;44.402;18.522;2023-11-21T08:01:27;96804.28;;;7.88;97.38
81224;BME280;70698;44.402;18.522;2023-11-21T08:03:54;96798.13;;;7.81;98.20
81224;BME280;70698;44.402;18.522;2023-11-21T08:06:23;96804.19;;;7.73;99.04
81224;BME280;70698;44.402;18.522;2023-11-21T08:08:49;96812.09;;;7.65;99.70
81224;BME280;70698;44.402;18.522;2023-11-21T08:11:15;96810.34;;;7.58;100.00
81224;BME280;70698;44.402;18.522;2023-11-21T08:13:41;96813.25;;;7.63;100.00
81224;BME280;70698;44.402;18.522;2023-11-21T08:16:07;96813.44;;;7.61;100.00
81224;BME280;70698;44.402;18.522;2023-11-21T08:18:33;96809.03;;;7.62;100.00
81224;BME280;70698;44.402;18.522;2023-11-21T08:20:59;96804.47;;;7.56;100.00
81224;BME280;70698;44.402;18.522;2023-11-21T08:23:25;96811.34;;;7.57;100.00
81224;BME280;70698;44.402;18.522;2023-11-21T08:25:52;96815.03;;;7.62;100.00
81224;BME280;70698;44.402;18.522;2023-11-21T08:28:18;96819.66;;;7.60;100.00
81224;BME280;70698;44.402;18.522;2023-11-21T08:30:44;96822.28;;;7.52;100.00
81224;BME280;70698;44.402;18.522;2023-11-21T08:33:10;96830.09;;;7.60;100.00
81224;BME280;70698;44.402;18.522;2023-11-21T08:35:37;96832.16;;;7.73;100.00
81224;BME280;70698;44.402;18.522;2023-11-21T08:38:03;96824.91;;;7.52;100.00
81224;BME280;70698;44.402;18.522;2023-11-21T08:40:29;96834.22;;;7.55;100.00
81224;BME280;70698;44.402;18.522;2023-11-21T08:42:55;96834.94;;;7.41;100.00
81224;BME280;70698;44.402;18.522;2023-11-21T08:45:22;96823.19;;;7.37;100.00
81224;BME280;70698;44.402;18.522;2023-11-21T08:47:48;96810.91;;;7.45;100.00
81224;BME280;70698;44.402;18.522;2023-11-21T08:50:14;96811.38;;;7.49;100.00
81224;BME280;70698;44.402;18.522;2023-11-21T08:52:40;96815.63;;;7.50;100.00
81224;BME280;70698;44.402;18.522;2023-11-21T08:55:07;96808.06;;;7.55;100.00
81224;BME280;70698;44.402;18.522;2023-11-21T08:57:36;96817.50;;;7.64;100.00
81224;BME280;70698;44.402;18.522;2023-11-21T09:00:06;96814.34;;;7.76;100.00
81224;BME280;70698;44.402;18.522;2023-11-21T09:02:37;96816.75;;;7.78;100.00
81224;BME280;70698;44.402;18.522;2023-11-21T09:05:06;96810.53;;;7.79;100.00
81224;BME280;70698;44.402;18.522;2023-11-21T09:07:32;96807.25;;;7.85;100.00
81224;BME280;70698;44.402;18.522;2023-11-21T09:09:58;96816.66;;;7.71;100.00
81224;BME280;70698;44.402;18.522;2023-11-21T09:12:24;96823.19;;;7.67;100.00
81224;BME280;70698;44.402;18.522;2023-11-21T09:14:52;96832.66;;;7.76;100.00
81224;BME280;70698;44.402;18.522;2023-11-21T09:17:18;96822.66;;;7.80;100.00
81224;BME280;70698;44.402;18.522;2023-11-21T09:19:44;96821.97;;;7.86;100.00
81224;BME280;70698;44.402;18.522;2023-11-21T09:22:12;96813.75;;;7.66;100.00
81224;BME280;70698;44.402;18.522;2023-11-21T09:24:38;96813.59;;;7.60;100.00
81224;BME280;70698;44.402;18.522;2023-11-21T09:27:04;96820.28;;;7.62;100.00
81224;BME280;70698;44.402;18.522;2023-11-21T09:29:30;96808.22;;;7.61;100.00
81224;BME280;70698;44.402;18.522;2023-11-21T09:31:57;96806.75;;;7.59;100.00
81224;BME280;70698;44.402;18.522;2023-11-21T09:34:25;96788.78;;;7.56;100.00
81224;BME280;70698;44.402;18.522;2023-11-21T09:36:51;96792.38;;;7.55;100.00
81224;BME280;70698;44.402;18.522;2023-11-21T09:39:17;96783.56;;;7.56;100.00
81224;BME280;70698;44.402;18.522;2023-11-21T09:41:52;96788.94;;;7.54;100.00
81224;BME280;70698;44.402;18.522;2023-11-21T09:44:35;96794.19;;;7.54;100.00
81224;BME280;70698;44.402;18.522;2023-11-21T09:47:02;96780.50;;;7.44;100.00
81224;BME280;70698;44.402;18.522;2023-11-21T09:49:28;96781.69;;;7.42;100.00
81224;BME280;70698;44.402;18.522;2023-11-21T09:51:58;96778.88;;;7.43;100.00
81224;BME280;70698;44.402;18.522;2023-11-21T09:54:30;96777.06;;;7.44;100.00
81224;BME280;70698;44.402;18.522;2023-11-21T09:56:59;96759.00;;;7.34;100.00
81224;BME280;70698;44.402;18.522;2023-11-21T09:59:25;96763.25;;;7.35;100.00
81224;BME280;70698;44.402;18.522;2023-11-21T10:01:56;96755.91;;;7.30;100.00
81224;BME280;70698;44.402;18.522;2023-11-21T10:04:24;96753.00;;;7.25;100.00
81224;BME280;70698;44.402;18.522;2023-11-21T10:06:50;96746.81;;;7.18;100.00
81224;BME280;70698;44.402;18.522;2023-11-21T10:09:17;96751.22;;;7.26;100.00
81224;BME280;70698;44.402;18.522;2023-11-21T10:11:47;96746.13;;;7.24;100.00
81224;BME280;70698;44.402;18.522;2023-11-21T10:14:16;96747.31;;;7.22;100.00
81224;BME280;70698;44.402;18.522;2023-11-21T10:16:44;96745.97;;;7.26;100.00
81224;BME280;70698;44.402;18.522;2023-11-21T10:19:12;96734.53;;;7.27;100.00
81224;BME280;70698;44.402;18.522;2023-11-21T10:21:41;96740.84;;;7.32;100.00
81224;BME280;70698;44.402;18.522;2023-11-21T10:24:07;96735.34;;;7.27;100.00
81224;BME280;70698;44.402;18.522;2023-11-21T10:26:33;96752.22;;;7.48;100.00
81224;BME280;70698;44.402;18.522;2023-11-21T10:29:00;96752.03;;;7.49;100.00
81224;BME280;70698;44.402;18.522;2023-11-21T10:31:30;96747.47;;;7.51;100.00
81224;BME280;70698;44.402;18.522;2023-11-21T10:36:42;96747.13;;;7.54;100.00
81224;BME280;70698;44.402;18.522;2023-11-21T10:39:08;96754.81;;;7.48;100.00
81224;BME280;70698;44.402;18.522;2023-11-21T10:41:35;96746.53;;;7.44;100.00
81224;BME280;70698;44.402;18.522;2023-11-21T10:44:01;96745.06;;;7.42;100.00
81224;BME280;70698;44.402;18.522;2023-11-21T10:46:29;96752.41;;;7.46;100.00
81224;BME280;70698;44.402;18.522;2023-11-21T10:48:55;96749.28;;;7.43;100.00
81224;BME280;70698;44.402;18.522;2023-11-21T10:51:22;96757.03;;;7.36;100.00
81224;BME280;70698;44.402;18.522;2023-11-21T10:53:51;96768.78;;;7.40;100.00
81224;BME280;70698;44.402;18.522;2023-11-21T10:56:18;96769.00;;;7.30;100.00
81224;BME280;70698;44.402;18.522;2023-11-21T10:58:49;96772.41;;;7.31;100.00
81224;BME280;70698;44.402;18.522;2023-11-21T11:01:17;96774.38;;;7.29;100.00
81224;BME280;70698;44.402;18.522;2023-11-21T11:03:44;96780.16;;;7.16;100.00
81224;BME280;70698;44.402;18.522;2023-11-21T11:06:10;96786.09;;;6.94;100.00
81224;BME280;70698;44.402;18.522;2023-11-21T11:08:39;96782.88;;;6.84;100.00
81224;BME280;70698;44.402;18.522;2023-11-21T11:11:05;96785.00;;;6.80;100.00
81224;BME280;70698;44.402;18.522;2023-11-21T11:13:31;96786.66;;;6.73;100.00
81224;BME280;70698;44.402;18.522;2023-11-21T11:15:58;96783.72;;;6.76;100.00
81224;BME280;70698;44.402;18.522;2023-11-21T11:18:29;96782.91;;;6.68;100.00
81224;BME280;70698;44.402;18.522;2023-11-21T11:21:07;96789.25;;;6.73;100.00
81224;BME280;70698;44.402;18.522;2023-11-21T11:23:44;96779.97;;;6.63;100.00
81224;BME280;70698;44.402;18.522;2023-11-21T11:36:36;96786.38;;;6.60;100.00
81224;BME280;70698;44.402;18.522;2023-11-21T11:39:03;96781.16;;;6.60;100.00
81224;BME280;70698;44.402;18.522;2023-11-21T11:41:31;96798.09;;;6.64;100.00
81224;BME280;70698;44.402;18.522;2023-11-21T11:44:02;96807.75;;;6.39;100.00
81224;BME280;70698;44.402;18.522;2023-11-21T11:46:43;96799.13;;;6.39;100.00
81224;BME280;70698;44.402;18.522;2023-11-21T11:49:23;96800.25;;;6.44;100.00
81224;BME280;70698;44.402;18.522;2023-11-21T11:55:14;96808.91;;;6.37;100.00
81224;BME280;70698;44.402;18.522;2023-11-21T11:57:44;96798.63;;;6.43;100.00
81224;BME280;70698;44.402;18.522;2023-11-21T12:00:22;96800.91;;;6.46;100.00
81224;BME280;70698;44.402;18.522;2023-11-21T12:03:01;96803.88;;;6.27;100.00
81224;BME280;70698;44.402;18.522;2023-11-21T12:05:32;96801.72;;;6.15;100.00
81224;BME280;70698;44.402;18.522;2023-11-21T12:08:02;96799.13;;;6.31;100.00
81224;BME280;70698;44.402;18.522;2023-11-21T12:10:30;96806.63;;;6.26;100.00
81224;BME280;70698;44.402;18.522;2023-11-21T12:12:58;96811.34;;;6.38;100.00
81224;BME280;70698;44.402;18.522;2023-11-21T12:15:25;96802.72;;;6.46;100.00
81224;BME280;70698;44.402;18.522;2023-11-21T12:17:51;96794.72;;;6.39;100.00
81224;BME280;70698;44.402;18.522;2023-11-21T12:20:23;96808.75;;;6.22;100.00
81224;BME280;70698;44.402;18.522;2023-11-21T12:22:50;96808.44;;;6.17;100.00
81224;BME280;70698;44.402;18.522;2023-11-21T12:25:17;96815.25;;;6.18;100.00
81224;BME280;70698;44.402;18.522;2023-11-21T12:27:45;96808.09;;;6.12;100.00
81224;BME280;70698;44.402;18.522;2023-11-21T12:30:12;96817.41;;;6.31;100.00
81224;BME280;70698;44.402;18.522;2023-11-21T12:32:48;96818.22;;;6.31;100.00
81224;BME280;70698;44.402;18.522;2023-11-21T12:35:14;96809.75;;;6.21;100.00
81224;BME280;70698;44.402;18.522;2023-11-21T12:37:41;96807.59;;;6.33;100.00
81224;BME280;70698;44.402;18.522;2023-11-21T12:40:10;96807.94;;;6.22;100.00
81224;BME280;70698;44.402;18.522;2023-11-21T12:42:45;96804.03;;;6.26;100.00
81224;BME280;70698;44.402;18.522;2023-11-21T12:45:25;96795.88;;;6.37;100.00
81224;BME280;70698;44.402;18.522;2023-11-21T12:47:54;96793.75;;;6.40;100.00
81224;BME280;70698;44.402;18.522;2023-11-21T12:50:22;96792.44;;;6.28;100.00
81224;BME280;70698;44.402;18.522;2023-11-21T12:52:51;96785.09;;;6.40;100.00
81224;BME280;70698;44.402;18.522;2023-11-21T12:55:21;96781.66;;;6.47;100.00
81224;BME280;70698;44.402;18.522;2023-11-21T12:57:49;96788.50;;;6.48;100.00
81224;BME280;70698;44.402;18.522;2023-11-21T13:00:26;96788.19;;;6.52;100.00
81224;BME280;70698;44.402;18.522;2023-11-21T13:02:57;96791.78;;;6.51;100.00
81224;BME280;70698;44.402;18.522;2023-11-21T13:05:28;96800.09;;;6.38;100.00
81224;BME280;70698;44.402;18.522;2023-11-21T13:07:55;96798.97;;;6.40;100.00
81224;BME280;70698;44.402;18.522;2023-11-21T13:10:23;96806.00;;;6.32;100.00
81224;BME280;70698;44.402;18.522;2023-11-21T13:12:52;96796.53;;;6.31;100.00